sensor_id;sensor_type;location;lat;lon;timestamp;pressure;altitude;pressure_sealevel;temperature;humidity
64628;BME280;68467;50.960;0.314;2023-06-10T00:01:04;99523.52;;;13.75;100.00
64628;BME280;68467;50.960;0.314;2023-06-10T00:03:32;99518.42;;;13.84;100.00
64628;BME280;68467;50.960;0.314;2023-06-10T00:05:59;99512.17;;;13.63;100.00
64628;BME280;68467;50.960;0.314;2023-06-10T00:08:26;99502.35;;;13.68;100.00
64628;BME280;68467;50.960;0.314;2023-06-10T00:10:54;99519.63;;;13.83;100.00
64628;BME280;68467;50.960;0.314;2023-06-10T00:13:21;99512.11;;;14.17;100.00
64628;BME280;68467;50.960;0.314;2023-06-10T00:15:48;99518.75;;;13.81;100.00
64628;BME280;68467;50.960;0.314;2023-06-10T00:18:16;99503.34;;;13.46;100.00
64628;BME280;68467;50.960;0.314;2023-06-10T00:20:43;99504.59;;;13.37;100.00
64628;BME280;68467;50.960;0.314;2023-06-10T00:23:11;99506.43;;;13.74;100.00
64628;BME280;68467;50.960;0.314;2023-06-10T00:25:39;99508.72;;;13.84;100.00
64628;BME280;68467;50.960;0.314;2023-06-10T00:28:06;99495.89;;;13.53;100.00
64628;BME280;68467;50.960;0.314;2023-06-10T00:30:34;99507.79;;;13.73;100.00
64628;BME280;68467;50.960;0.314;2023-06-10T00:33:02;99497.40;;;13.85;100.00
64628;BME280;68467;50.960;0.314;2023-06-10T00:35:29;99508.35;;;13.45;100.00
64628;BME280;68467;50.960;0.314;2023-06-10T00:37:57;99507.36;;;13.63;100.00
64628;BME280;68467;50.960;0.314;2023-06-10T00:40:24;99509.02;;;13.58;100.00
64628;BME280;68467;50.960;0.314;2023-06-10T00:42:51;99503.28;;;13.19;100.00
64628;BME280;68467;50.960;0.314;2023-06-10T00:45:18;99506.69;;;13.23;100.00
64628;BME280;68467;50.960;0.314;2023-06-10T00:47:46;99504.21;;;13.57;100.00
64628;BME280;68467;50.960;0.314;2023-06-10T00:50:13;99501.61;;;13.25;100.00
64628;BME280;68467;50.960;0.314;2023-06-10T00:52:41;99501.10;;;13.18;100.00
64628;BME280;68467;50.960;0.314;2023-06-10T00:55:09;99499.01;;;13.43;100.00
64628;BME280;68467;50.960;0.314;2023-06-10T00:57:36;99497.11;;;13.26;100.00
64628;BME280;68467;50.960;0.314;2023-06-10T01:00:05;99497.33;;;13.55;100.00
64628;BME280;68467;50.960;0.314;2023-06-10T01:02:32;99496.37;;;13.43;100.00
64628;BME280;68467;50.960;0.314;2023-06-10T01:05:00;99490.78;;;13.21;100.00
64628;BME280;68467;50.960;0.314;2023-06-10T01:07:30;99502.18;;;13.58;100.00
64628;BME280;68467;50.960;0.314;2023-06-10T01:10:05;99494.80;;;13.59;100.00
64628;BME280;68467;50.960;0.314;2023-06-10T01:12:41;99493.32;;;13.48;100.00
64628;BME280;68467;50.960;0.314;2023-06-10T01:15:10;99499.91;;;13.32;100.00
64628;BME280;68467;50.960;0.314;2023-06-10T01:17:53;99492.98;;;13.46;100.00
64628;BME280;68467;50.960;0.314;2023-06-10T01:20:21;99497.22;;;13.49;100.00
64628;BME280;68467;50.960;0.314;2023-06-10T01:22:48;99492.67;;;13.42;100.00
64628;BME280;68467;50.960;0.314;2023-06-10T01:25:16;99492.10;;;13.19;100.00
64628;BME280;68467;50.960;0.314;2023-06-10T01:27:44;99488.72;;;13.35;100.00
64628;BME280;68467;50.960;0.314;2023-06-10T01:30:15;99487.79;;;13.34;100.00
64628;BME280;68467;50.960;0.314;2023-06-10T01:32:47;99486.38;;;12.96;100.00
64628;BME280;68467;50.960;0.314;2023-06-10T01:35:15;99485.21;;;13.40;100.00
64628;BME280;68467;50.960;0.314;2023-06-10T01:37:46;99479.69;;;13.71;100.00
64628;BME280;68467;50.960;0.314;2023-06-10T01:40:14;99475.90;;;13.34;100.00
64628;BME280;68467;50.960;0.314;2023-06-10T01:42:42;99479.26;;;13.31;100.00
64628;BME280;68467;50.960;0.314;2023-06-10T01:45:10;99477.10;;;13.42;100.00
64628;BME280;68467;50.960;0.314;2023-06-10T01:47:37;99470.47;;;13.08;100.00
64628;BME280;68467;50.960;0.314;2023-06-10T01:50:05;99473.87;;;13.72;100.00
64628;BME280;68467;50.960;0.314;2023-06-10T01:52:32;99473.39;;;13.10;100.00
64628;BME280;68467;50.960;0.314;2023-06-10T01:54:59;99477.82;;;13.19;100.00
64628;BME280;68467;50.960;0.314;2023-06-10T01:57:27;99477.21;;;13.71;100.00
64628;BME280;68467;50.960;0.314;2023-06-10T01:59:54;99477.69;;;13.21;100.00
64628;BME280;68467;50.960;0.314;2023-06-10T02:02:21;99479.15;;;12.90;100.00
64628;BME280;68467;50.960;0.314;2023-06-10T02:04:47;99484.44;;;13.61;100.00
64628;BME280;68467;50.960;0.314;2023-06-10T02:07:14;99483.72;;;13.39;100.00
64628;BME280;68467;50.960;0.314;2023-06-10T02:09:41;99478.03;;;13.00;100.00
64628;BME280;68467;50.960;0.314;2023-06-10T02:12:09;99478.21;;;13.11;100.00
64628;BME280;68467;50.960;0.314;2023-06-10T02:14:37;99478.11;;;13.20;100.00
64628;BME280;68467;50.960;0.314;2023-06-10T02:17:04;99481.94;;;13.37;100.00
64628;BME280;68467;50.960;0.314;2023-06-10T02:19:32;99480.05;;;12.96;100.00
64628;BME280;68467;50.960;0.314;2023-06-10T02:21:59;99478.86;;;13.95;100.00
64628;BME280;68467;50.960;0.314;2023-06-10T02:24:26;99476.47;;;13.23;100.00
64628;BME280;68467;50.960;0.314;2023-06-10T02:26:54;99478.12;;;13.45;100.00
64628;BME280;68467;50.960;0.314;2023-06-10T02:29:21;99479.02;;;13.19;100.00
64628;BME280;68467;50.960;0.314;2023-06-10T02:31:48;99482.56;;;13.29;100.00
64628;BME280;68467;50.960;0.314;2023-06-10T02:34:16;99475.90;;;13.03;100.00
64628;BME280;68467;50.960;0.314;2023-06-10T02:36:43;99478.85;;;13.38;100.00
64628;BME280;68467;50.960;0.314;2023-06-10T02:39:10;99476.32;;;12.99;100.00
64628;BME280;68467;50.960;0.314;2023-06-10T02:41:37;99481.79;;;12.86;100.00
64628;BME280;68467;50.960;0.314;2023-06-10T02:44:05;99484.54;;;12.68;100.00
64628;BME280;68467;50.960;0.314;2023-06-10T02:46:32;99483.97;;;13.25;100.00
64628;BME280;68467;50.960;0.314;2023-06-10T02:49:00;99485.56;;;13.18;100.00
64628;BME280;68467;50.960;0.314;2023-06-10T02:51:27;99483.80;;;12.79;100.00
64628;BME280;68467;50.960;0.314;2023-06-10T02:53:54;99487.27;;;13.55;100.00
64628;BME280;68467;50.960;0.314;2023-06-10T02:56:22;99486.93;;;13.31;100.00
64628;BME280;68467;50.960;0.314;2023-06-10T02:58:49;99488.71;;;13.29;100.00
64628;BME280;68467;50.960;0.314;2023-06-10T03:01:16;99488.86;;;12.73;100.00
64628;BME280;68467;50.960;0.314;2023-06-10T03:03:43;99491.98;;;13.14;100.00
64628;BME280;68467;50.960;0.314;2023-06-10T03:06:11;99488.66;;;12.83;100.00
64628;BME280;68467;50.960;0.314;2023-06-10T03:08:38;99492.17;;;13.32;100.00
64628;BME280;68467;50.960;0.314;2023-06-10T03:11:05;99491.87;;;13.01;100.00
64628;BME280;68467;50.960;0.314;2023-06-10T03:13:33;99489.36;;;12.84;100.00
64628;BME280;68467;50.960;0.314;2023-06-10T03:16:00;99490.04;;;13.42;100.00
64628;BME280;68467;50.960;0.314;2023-06-10T03:18:27;99489.16;;;12.88;100.00
64628;BME280;68467;50.960;0.314;2023-06-10T03:20:55;99487.45;;;12.93;100.00
64628;BME280;68467;50.960;0.314;2023-06-10T03:23:22;99485.10;;;12.95;100.00
64628;BME280;68467;50.960;0.314;2023-06-10T03:25:49;99487.85;;;13.05;100.00
64628;BME280;68467;50.960;0.314;2023-06-10T03:28:17;99489.03;;;13.22;100.00
64628;BME280;68467;50.960;0.314;2023-06-10T03:30:44;99487.15;;;13.49;100.00
64628;BME280;68467;50.960;0.314;2023-06-10T03:33:11;99491.50;;;13.55;100.00
64628;BME280;68467;50.960;0.314;2023-06-10T03:35:38;99486.91;;;12.96;100.00
64628;BME280;68467;50.960;0.314;2023-06-10T03:38:05;99485.01;;;13.15;100.00
64628;BME280;68467;50.960;0.314;2023-06-10T03:40:32;99485.70;;;13.16;100.00
64628;BME280;68467;50.960;0.314;2023-06-10T03:43:00;99483.03;;;12.98;100.00
64628;BME280;68467;50.960;0.314;2023-06-10T03:45:27;99484.36;;;13.16;100.00
64628;BME280;68467;50.960;0.314;2023-06-10T03:47:55;99483.38;;;13.21;100.00
64628;BME280;68467;50.960;0.314;2023-06-10T03:50:22;99484.37;;;13.08;100.00
64628;BME280;68467;50.960;0.314;2023-06-10T03:52:55;99487.95;;;12.78;100.00
64628;BME280;68467;50.960;0.314;2023-06-10T03:55:23;99491.58;;;12.86;100.00
64628;BME280;68467;50.960;0.314;2023-06-10T03:57:51;99489.44;;;13.09;100.00
64628;BME280;68467;50.960;0.314;2023-06-10T04:00:19;99494.14;;;13.01;100.00
64628;BME280;68467;50.960;0.314;2023-06-10T04:02:46;99491.07;;;12.43;100.00
64628;BME280;68467;50.960;0.314;2023-06-10T04:05:14;99489.84;;;13.10;100.00
64628;BME280;68467;50.960;0.314;2023-06-10T04:07:42;99491.86;;;13.20;100.00
64628;BME280;68467;50.960;0.314;2023-06-10T04:10:10;99485.02;;;13.07;100.00
64628;BME280;68467;50.960;0.314;2023-06-10T04:12:37;99487.45;;;12.79;100.00
64628;BME280;68467;50.960;0.314;2023-06-10T04:15:06;99491.38;;;12.53;100.00
64628;BME280;68467;50.960;0.314;2023-06-10T04:17:33;99494.18;;;12.49;100.00
64628;BME280;68467;50.960;0.314;2023-06-10T04:20:01;99501.57;;;12.98;100.00
64628;BME280;68467;50.960;0.314;2023-06-10T04:22:29;99508.08;;;13.33;100.00
64628;BME280;68467;50.960;0.314;2023-06-10T04:24:56;99502.92;;;13.85;100.00
64628;BME280;68467;50.960;0.314;2023-06-10T04:27:23;99505.63;;;12.59;100.00
64628;BME280;68467;50.960;0.314;2023-06-10T04:29:50;99502.35;;;13.13;100.00
64628;BME280;68467;50.960;0.314;2023-06-10T04:32:18;99498.82;;;14.01;100.00
64628;BME280;68467;50.960;0.314;2023-06-10T04:34:44;99496.37;;;12.94;100.00
64628;BME280;68467;50.960;0.314;2023-06-10T04:37:11;99496.85;;;13.67;100.00
64628;BME280;68467;50.960;0.314;2023-06-10T04:39:38;99499.65;;;13.72;100.00
64628;BME280;68467;50.960;0.314;2023-06-10T04:42:06;99495.84;;;13.28;100.00
64628;BME280;68467;50.960;0.314;2023-06-10T04:44:33;99493.04;;;13.42;100.00
64628;BME280;68467;50.960;0.314;2023-06-10T04:47:00;99492.58;;;13.46;100.00
64628;BME280;68467;50.960;0.314;2023-06-10T04:49:27;99489.83;;;13.75;100.00
64628;BME280;68467;50.960;0.314;2023-06-10T04:51:54;99492.58;;;13.22;100.00
64628;BME280;68467;50.960;0.314;2023-06-10T04:54:21;99490.79;;;13.59;100.00
64628;BME280;68467;50.960;0.314;2023-06-10T04:56:49;99492.14;;;13.40;100.00
64628;BME280;68467;50.960;0.314;2023-06-10T04:59:16;99489.75;;;13.51;100.00
64628;BME280;68467;50.960;0.314;2023-06-10T05:01:44;99489.47;;;13.62;100.00
64628;BME280;68467;50.960;0.314;2023-06-10T05:04:11;99493.18;;;14.11;100.00
64628;BME280;68467;50.960;0.314;2023-06-10T05:06:38;99487.76;;;14.67;100.00
64628;BME280;68467;50.960;0.314;2023-06-10T05:09:05;99485.58;;;13.98;100.00
64628;BME280;68467;50.960;0.314;2023-06-10T05:11:33;99482.22;;;14.12;100.00
64628;BME280;68467;50.960;0.314;2023-06-10T05:14:00;99482.20;;;14.41;100.00
64628;BME280;68467;50.960;0.314;2023-06-10T05:16:27;99482.76;;;14.06;100.00
64628;BME280;68467;50.960;0.314;2023-06-10T05:18:54;99485.12;;;13.85;100.00
64628;BME280;68467;50.960;0.314;2023-06-10T05:21:22;99481.30;;;13.82;100.00
64628;BME280;68467;50.960;0.314;2023-06-10T05:23:49;99476.91;;;14.25;100.00
64628;BME280;68467;50.960;0.314;2023-06-10T05:26:17;99480.49;;;15.35;100.00
64628;BME280;68467;50.960;0.314;2023-06-10T05:28:44;99479.86;;;14.94;100.00
64628;BME280;68467;50.960;0.314;2023-06-10T05:31:12;99488.45;;;14.57;100.00
64628;BME280;68467;50.960;0.314;2023-06-10T05:33:39;99493.01;;;16.53;100.00
64628;BME280;68467;50.960;0.314;2023-06-10T05:36:06;99502.57;;;16.07;100.00
64628;BME280;68467;50.960;0.314;2023-06-10T05:38:33;99501.24;;;15.70;100.00
64628;BME280;68467;50.960;0.314;2023-06-10T05:41:01;99499.07;;;16.66;100.00
64628;BME280;68467;50.960;0.314;2023-06-10T05:43:28;99496.97;;;16.68;100.00
64628;BME280;68467;50.960;0.314;2023-06-10T05:45:55;99505.28;;;17.12;100.00
64628;BME280;68467;50.960;0.314;2023-06-10T05:48:23;99499.56;;;16.43;100.00
64628;BME280;68467;50.960;0.314;2023-06-10T05:50:50;99508.62;;;16.84;100.00
64628;BME280;68467;50.960;0.314;2023-06-10T05:53:18;99507.22;;;16.62;100.00
64628;BME280;68467;50.960;0.314;2023-06-10T05:55:46;99512.22;;;16.35;100.00
64628;BME280;68467;50.960;0.314;2023-06-10T05:58:14;99516.90;;;16.64;100.00
64628;BME280;68467;50.960;0.314;2023-06-10T06:00:42;99517.75;;;17.05;100.00
64628;BME280;68467;50.960;0.314;2023-06-10T06:03:09;99515.71;;;17.33;100.00
64628;BME280;68467;50.960;0.314;2023-06-10T06:05:37;99522.49;;;16.88;100.00
64628;BME280;68467;50.960;0.314;2023-06-10T06:08:04;99517.49;;;17.93;100.00
64628;BME280;68467;50.960;0.314;2023-06-10T06:10:31;99521.23;;;17.84;100.00
64628;BME280;68467;50.960;0.314;2023-06-10T06:13:00;99524.57;;;17.33;100.00
64628;BME280;68467;50.960;0.314;2023-06-10T06:15:28;99525.17;;;16.93;100.00
64628;BME280;68467;50.960;0.314;2023-06-10T06:17:55;99526.38;;;18.19;100.00
64628;BME280;68467;50.960;0.314;2023-06-10T06:20:23;99527.26;;;17.23;100.00
64628;BME280;68467;50.960;0.314;2023-06-10T06:22:51;99526.66;;;17.79;100.00
64628;BME280;68467;50.960;0.314;2023-06-10T06:25:18;99523.35;;;17.09;100.00
64628;BME280;68467;50.960;0.314;2023-06-10T06:27:45;99521.98;;;17.52;100.00
64628;BME280;68467;50.960;0.314;2023-06-10T06:30:12;99516.56;;;18.32;100.00
64628;BME280;68467;50.960;0.314;2023-06-10T06:32:40;99518.75;;;17.98;100.00
64628;BME280;68467;50.960;0.314;2023-06-10T06:35:08;99517.52;;;18.29;100.00
64628;BME280;68467;50.960;0.314;2023-06-10T06:37:36;99520.28;;;17.75;100.00
64628;BME280;68467;50.960;0.314;2023-06-10T06:40:04;99520.03;;;18.17;100.00
64628;BME280;68467;50.960;0.314;2023-06-10T06:42:31;99524.55;;;17.99;100.00
64628;BME280;68467;50.960;0.314;2023-06-10T06:44:58;99522.63;;;18.98;100.00
64628;BME280;68467;50.960;0.314;2023-06-10T06:47:26;99523.85;;;18.65;100.00
64628;BME280;68467;50.960;0.314;2023-06-10T06:49:53;99526.56;;;19.03;100.00
64628;BME280;68467;50.960;0.314;2023-06-10T06:52:20;99527.91;;;18.52;100.00
64628;BME280;68467;50.960;0.314;2023-06-10T06:54:47;99528.34;;;18.91;100.00
64628;BME280;68467;50.960;0.314;2023-06-10T06:57:14;99534.01;;;17.70;100.00
64628;BME280;68467;50.960;0.314;2023-06-10T06:59:42;99531.63;;;18.79;100.00
64628;BME280;68467;50.960;0.314;2023-06-10T07:02:10;99533.75;;;18.22;100.00
64628;BME280;68467;50.960;0.314;2023-06-10T07:04:38;99526.76;;;17.94;100.00
64628;BME280;68467;50.960;0.314;2023-06-10T07:07:07;99528.11;;;19.26;100.00
64628;BME280;68467;50.960;0.314;2023-06-10T07:09:37;99527.66;;;19.16;100.00
64628;BME280;68467;50.960;0.314;2023-06-10T07:12:04;99528.46;;;19.31;100.00
64628;BME280;68467;50.960;0.314;2023-06-10T07:14:32;99524.88;;;20.11;100.00
64628;BME280;68467;50.960;0.314;2023-06-10T07:16:59;99524.13;;;19.63;100.00
64628;BME280;68467;50.960;0.314;2023-06-10T07:19:26;99528.08;;;19.87;100.00
64628;BME280;68467;50.960;0.314;2023-06-10T07:21:53;99532.14;;;19.83;100.00
64628;BME280;68467;50.960;0.314;2023-06-10T07:24:20;99537.20;;;19.57;100.00
64628;BME280;68467;50.960;0.314;2023-06-10T07:26:47;99538.21;;;19.49;100.00
64628;BME280;68467;50.960;0.314;2023-06-10T07:29:14;99544.51;;;19.02;100.00
64628;BME280;68467;50.960;0.314;2023-06-10T07:31:42;99547.49;;;19.47;100.00
64628;BME280;68467;50.960;0.314;2023-06-10T07:34:10;99546.44;;;19.91;100.00
64628;BME280;68467;50.960;0.314;2023-06-10T07:36:37;99550.28;;;20.14;100.00
64628;BME280;68467;50.960;0.314;2023-06-10T07:39:04;99549.39;;;19.00;100.00
64628;BME280;68467;50.960;0.314;2023-06-10T07:41:31;99550.65;;;19.67;100.00
64628;BME280;68467;50.960;0.314;2023-06-10T07:43:58;99550.85;;;19.98;100.00
64628;BME280;68467;50.960;0.314;2023-06-10T07:46:25;99552.80;;;20.27;100.00
64628;BME280;68467;50.960;0.314;2023-06-10T07:48:53;99555.25;;;20.33;100.00
64628;BME280;68467;50.960;0.314;2023-06-10T07:51:21;99553.43;;;20.09;100.00
64628;BME280;68467;50.960;0.314;2023-06-10T07:53:48;99558.35;;;19.47;100.00
64628;BME280;68467;50.960;0.314;2023-06-10T07:56:16;99561.81;;;19.06;100.00
64628;BME280;68467;50.960;0.314;2023-06-10T07:58:43;99559.61;;;19.57;100.00
64628;BME280;68467;50.960;0.314;2023-06-10T08:01:10;99561.08;;;19.75;100.00
64628;BME280;68467;50.960;0.314;2023-06-10T08:03:37;99559.36;;;19.83;100.00
64628;BME280;68467;50.960;0.314;2023-06-10T08:06:05;99561.64;;;20.24;100.00
64628;BME280;68467;50.960;0.314;2023-06-10T08:08:32;99558.85;;;20.38;100.00
64628;BME280;68467;50.960;0.314;2023-06-10T08:10:59;99555.98;;;20.13;100.00
64628;BME280;68467;50.960;0.314;2023-06-10T08:13:27;99555.28;;;20.35;100.00
64628;BME280;68467;50.960;0.314;2023-06-10T08:15:54;99553.71;;;20.46;100.00
64628;BME280;68467;50.960;0.314;2023-06-10T08:18:22;99554.37;;;20.70;100.00
64628;BME280;68467;50.960;0.314;2023-06-10T08:20:49;99556.68;;;21.30;100.00
64628;BME280;68467;50.960;0.314;2023-06-10T08:23:16;99563.84;;;22.02;100.00
64628;BME280;68467;50.960;0.314;2023-06-10T08:25:43;99561.56;;;22.04;100.00
64628;BME280;68467;50.960;0.314;2023-06-10T08:28:10;99567.04;;;21.93;100.00
64628;BME280;68467;50.960;0.314;2023-06-10T08:30:37;99563.27;;;21.84;100.00
64628;BME280;68467;50.960;0.314;2023-06-10T08:33:04;99566.55;;;22.26;100.00
64628;BME280;68467;50.960;0.314;2023-06-10T08:35:31;99564.77;;;22.12;100.00
64628;BME280;68467;50.960;0.314;2023-06-10T08:37:59;99566.19;;;22.06;100.00
64628;BME280;68467;50.960;0.314;2023-06-10T08:40:26;99568.46;;;21.70;100.00
64628;BME280;68467;50.960;0.314;2023-06-10T08:43:00;99564.20;;;22.17;100.00
64628;BME280;68467;50.960;0.314;2023-06-10T08:45:31;99565.17;;;22.19;100.00
64628;BME280;68467;50.960;0.314;2023-06-10T08:48:03;99566.75;;;22.28;100.00
64628;BME280;68467;50.960;0.314;2023-06-10T08:50:30;99568.80;;;22.29;100.00
64628;BME280;68467;50.960;0.314;2023-06-10T08:52:58;99570.92;;;22.62;100.00
64628;BME280;68467;50.960;0.314;2023-06-10T08:55:31;99572.12;;;23.27;100.00
64628;BME280;68467;50.960;0.314;2023-06-10T08:58:00;99573.10;;;22.98;100.00
64628;BME280;68467;50.960;0.314;2023-06-10T09:00:28;99571.32;;;23.23;100.00
64628;BME280;68467;50.960;0.314;2023-06-10T09:02:56;99573.96;;;22.75;100.00
64628;BME280;68467;50.960;0.314;2023-06-10T09:05:24;99574.61;;;23.04;100.00
64628;BME280;68467;50.960;0.314;2023-06-10T09:07:52;99574.33;;;23.84;100.00
64628;BME280;68467;50.960;0.314;2023-06-10T09:10:20;99575.25;;;24.31;100.00
64628;BME280;68467;50.960;0.314;2023-06-10T09:12:47;99577.17;;;23.89;100.00
64628;BME280;68467;50.960;0.314;2023-06-10T09:15:14;99577.34;;;23.84;100.00
64628;BME280;68467;50.960;0.314;2023-06-10T09:17:41;99578.00;;;24.05;100.00
64628;BME280;68467;50.960;0.314;2023-06-10T09:20:10;99579.26;;;24.29;100.00
64628;BME280;68467;50.960;0.314;2023-06-10T09:22:38;99588.15;;;24.45;100.00
64628;BME280;68467;50.960;0.314;2023-06-10T09:25:06;99591.19;;;24.36;100.00
64628;BME280;68467;50.960;0.314;2023-06-10T09:27:44;99592.17;;;23.80;100.00
64628;BME280;68467;50.960;0.314;2023-06-10T09:30:24;99589.73;;;24.46;100.00
64628;BME280;68467;50.960;0.314;2023-06-10T09:32:52;99593.54;;;23.76;100.00
64628;BME280;68467;50.960;0.314;2023-06-10T09:35:20;99595.01;;;24.43;100.00
64628;BME280;68467;50.960;0.314;2023-06-10T09:37:51;99594.89;;;24.75;100.00
64628;BME280;68467;50.960;0.314;2023-06-10T09:40:19;99599.15;;;23.73;100.00
64628;BME280;68467;50.960;0.314;2023-06-10T09:42:53;99599.07;;;23.37;100.00
64628;BME280;68467;50.960;0.314;2023-06-10T09:45:21;99599.00;;;23.56;100.00
64628;BME280;68467;50.960;0.314;2023-06-10T09:47:52;99597.42;;;24.64;100.00
64628;BME280;68467;50.960;0.314;2023-06-10T09:50:18;99590.75;;;24.75;100.00
64628;BME280;68467;50.960;0.314;2023-06-10T09:52:46;99594.98;;;25.08;100.00
64628;BME280;68467;50.960;0.314;2023-06-10T09:55:14;99593.00;;;24.64;100.00
64628;BME280;68467;50.960;0.314;2023-06-10T09:57:41;99592.60;;;24.57;100.00
64628;BME280;68467;50.960;0.314;2023-06-10T10:00:10;99593.82;;;25.32;100.00
64628;BME280;68467;50.960;0.314;2023-06-10T10:02:45;99595.69;;;24.97;100.00
64628;BME280;68467;50.960;0.314;2023-06-10T10:05:13;99593.84;;;25.50;100.00
64628;BME280;68467;50.960;0.314;2023-06-10T10:07:41;99596.43;;;25.74;100.00
64628;BME280;68467;50.960;0.314;2023-06-10T10:10:09;99587.43;;;25.48;100.00
64628;BME280;68467;50.960;0.314;2023-06-10T10:12:38;99599.19;;;24.99;100.00
64628;BME280;68467;50.960;0.314;2023-06-10T10:15:07;99594.67;;;24.89;100.00
64628;BME280;68467;50.960;0.314;2023-06-10T10:17:35;99597.07;;;25.02;100.00
64628;BME280;68467;50.960;0.314;2023-06-10T10:20:05;99595.66;;;25.95;100.00
64628;BME280;68467;50.960;0.314;2023-06-10T10:22:38;99597.33;;;25.67;100.00
64628;BME280;68467;50.960;0.314;2023-06-10T10:25:10;99597.38;;;24.73;100.00
64628;BME280;68467;50.960;0.314;2023-06-10T10:27:44;99596.45;;;24.26;100.00
64628;BME280;68467;50.960;0.314;2023-06-10T10:30:17;99594.27;;;25.16;99.48
64628;BME280;68467;50.960;0.314;2023-06-10T10:32:54;99594.71;;;26.00;99.79
64628;BME280;68467;50.960;0.314;2023-06-10T10:35:25;99597.05;;;24.70;100.00
64628;BME280;68467;50.960;0.314;2023-06-10T10:37:54;99596.35;;;25.44;100.00
64628;BME280;68467;50.960;0.314;2023-06-10T10:40:22;99596.28;;;25.60;99.18
64628;BME280;68467;50.960;0.314;2023-06-10T10:42:50;99593.36;;;25.02;100.00
64628;BME280;68467;50.960;0.314;2023-06-10T10:45:18;99592.07;;;26.00;97.52
64628;BME280;68467;50.960;0.314;2023-06-10T10:47:46;99591.41;;;26.62;96.10
64628;BME280;68467;50.960;0.314;2023-06-10T10:50:19;99591.71;;;27.10;97.12
64628;BME280;68467;50.960;0.314;2023-06-10T10:52:52;99592.35;;;26.75;95.04
64628;BME280;68467;50.960;0.314;2023-06-10T10:55:21;99591.33;;;27.12;95.27
64628;BME280;68467;50.960;0.314;2023-06-10T10:57:57;99594.05;;;26.23;98.08
64628;BME280;68467;50.960;0.314;2023-06-10T11:00:28;99590.10;;;27.20;98.33
64628;BME280;68467;50.960;0.314;2023-06-10T11:02:59;99590.31;;;27.11;96.09
64628;BME280;68467;50.960;0.314;2023-06-10T11:05:38;99589.80;;;27.00;97.33
64628;BME280;68467;50.960;0.314;2023-06-10T11:08:07;99589.93;;;27.68;97.41
64628;BME280;68467;50.960;0.314;2023-06-10T11:10:35;99589.83;;;27.60;95.60
64628;BME280;68467;50.960;0.314;2023-06-10T11:13:08;99582.74;;;27.14;95.12
64628;BME280;68467;50.960;0.314;2023-06-10T11:15:40;99585.22;;;27.61;95.49
64628;BME280;68467;50.960;0.314;2023-06-10T11:18:13;99585.44;;;26.30;92.84
64628;BME280;68467;50.960;0.314;2023-06-10T11:20:58;99583.93;;;26.32;92.72
64628;BME280;68467;50.960;0.314;2023-06-10T11:23:32;99583.84;;;25.90;94.61
64628;BME280;68467;50.960;0.314;2023-06-10T11:26:17;99586.55;;;26.15;93.03
64628;BME280;68467;50.960;0.314;2023-06-10T11:29:03;99578.82;;;26.48;89.37
64628;BME280;68467;50.960;0.314;2023-06-10T11:31:31;99586.21;;;25.76;93.57
64628;BME280;68467;50.960;0.314;2023-06-10T11:34:00;99576.61;;;26.54;89.42
64628;BME280;68467;50.960;0.314;2023-06-10T11:36:28;99579.43;;;25.96;92.01
64628;BME280;68467;50.960;0.314;2023-06-10T11:38:58;99581.56;;;26.13;89.48
64628;BME280;68467;50.960;0.314;2023-06-10T11:41:26;99580.97;;;26.54;89.17
64628;BME280;68467;50.960;0.314;2023-06-10T11:43:54;99584.03;;;26.53;86.19
64628;BME280;68467;50.960;0.314;2023-06-10T11:46:22;99582.55;;;26.59;87.63
64628;BME280;68467;50.960;0.314;2023-06-10T11:48:50;99583.34;;;26.55;85.31
64628;BME280;68467;50.960;0.314;2023-06-10T11:51:19;99585.54;;;26.05;86.49
64628;BME280;68467;50.960;0.314;2023-06-10T11:53:47;99581.14;;;26.55;85.45
64628;BME280;68467;50.960;0.314;2023-06-10T11:56:19;99578.30;;;26.29;85.21
64628;BME280;68467;50.960;0.314;2023-06-10T11:58:52;99581.03;;;27.38;84.08
64628;BME280;68467;50.960;0.314;2023-06-10T12:01:20;99573.76;;;28.22;82.50
64628;BME280;68467;50.960;0.314;2023-06-10T12:03:56;99575.49;;;28.08;81.34
64628;BME280;68467;50.960;0.314;2023-06-10T12:06:24;99574.35;;;28.06;82.40
64628;BME280;68467;50.960;0.314;2023-06-10T12:08:51;99574.14;;;27.79;84.08
64628;BME280;68467;50.960;0.314;2023-06-10T12:11:18;99577.34;;;27.11;85.02
64628;BME280;68467;50.960;0.314;2023-06-10T12:13:48;99567.98;;;28.13;83.25
64628;BME280;68467;50.960;0.314;2023-06-10T12:16:16;99571.25;;;28.18;83.84
64628;BME280;68467;50.960;0.314;2023-06-10T12:18:44;99572.13;;;28.45;82.13
64628;BME280;68467;50.960;0.314;2023-06-10T12:21:20;99569.78;;;27.70;80.49
64628;BME280;68467;50.960;0.314;2023-06-10T12:24:07;99570.00;;;27.91;82.94
64628;BME280;68467;50.960;0.314;2023-06-10T12:26:40;99574.22;;;26.66;81.98
64628;BME280;68467;50.960;0.314;2023-06-10T12:29:24;99569.05;;;26.60;82.89
64628;BME280;68467;50.960;0.314;2023-06-10T12:31:57;99568.73;;;27.36;82.77
64628;BME280;68467;50.960;0.314;2023-06-10T12:34:34;99562.89;;;27.20;81.33
64628;BME280;68467;50.960;0.314;2023-06-10T12:37:02;99565.34;;;26.87;83.67
64628;BME280;68467;50.960;0.314;2023-06-10T12:39:30;99567.40;;;26.91;84.97
64628;BME280;68467;50.960;0.314;2023-06-10T12:41:59;99565.16;;;27.26;86.02
64628;BME280;68467;50.960;0.314;2023-06-10T12:44:31;99562.87;;;27.51;87.53
64628;BME280;68467;50.960;0.314;2023-06-10T12:46:58;99563.53;;;27.04;83.88
64628;BME280;68467;50.960;0.314;2023-06-10T12:49:26;99562.59;;;27.73;83.01
64628;BME280;68467;50.960;0.314;2023-06-10T12:51:53;99557.65;;;28.74;79.89
64628;BME280;68467;50.960;0.314;2023-06-10T12:54:21;99560.40;;;27.80;81.42
64628;BME280;68467;50.960;0.314;2023-06-10T12:56:49;99558.10;;;28.33;82.26
64628;BME280;68467;50.960;0.314;2023-06-10T12:59:17;99563.88;;;26.92;80.72